createdAt,value
2023-02-24T00:02:05.602Z,2.70
2023-02-24T00:04:39.566Z,2.77
2023-02-24T00:07:12.784Z,2.73
2023-02-24T00:09:40.256Z,2.70
2023-02-24T00:12:13.245Z,2.70
2023-02-24T00:14:44.601Z,2.73
2023-02-24T00:17:14.413Z,2.70
2023-02-24T00:19:42.132Z,2.63
2023-02-24T00:22:10.250Z,2.80
2023-02-24T00:24:37.801Z,2.70
2023-02-24T00:27:13.415Z,2.80
2023-02-24T00:29:41.786Z,2.77
2023-02-24T00:32:12.671Z,2.83
2023-02-24T00:34:40.475Z,2.60
2023-02-24T00:37:08.572Z,2.80
2023-02-24T00:39:41.224Z,2.63
2023-02-24T00:42:11.492Z,2.70
2023-02-24T00:44:46.540Z,2.67
2023-02-24T00:47:16.966Z,2.77
2023-02-24T00:49:44.489Z,2.70
2023-02-24T00:52:20.766Z,2.83
2023-02-24T00:54:50.185Z,2.67
2023-02-24T00:57:18.484Z,2.60
2023-02-24T00:59:51.180Z,2.67
2023-02-24T01:02:18.653Z,2.67
2023-02-24T01:04:46.246Z,2.70
2023-02-24T01:07:14.736Z,2.60
2023-02-24T01:09:43.797Z,2.73
2023-02-24T01:12:32.027Z,2.70
2023-02-24T01:14:59.552Z,2.70
2023-02-24T01:17:26.586Z,2.73
2023-02-24T01:20:00.247Z,2.77
2023-02-24T01:22:27.938Z,2.67
2023-02-24T01:24:54.905Z,2.70
2023-02-24T01:27:21.911Z,2.70
2023-02-24T01:29:49.532Z,2.80
2023-02-24T01:32:22.128Z,2.73
2023-02-24T01:34:53.037Z,2.83
2023-02-24T01:37:21.062Z,2.80
2023-02-24T01:39:49.153Z,2.60
2023-02-24T01:42:21.540Z,2.70
2023-02-24T01:44:48.874Z,2.70
2023-02-24T01:47:23.098Z,2.70
2023-02-24T01:49:54.758Z,2.70
2023-02-24T01:52:31.282Z,2.70
2023-02-24T01:55:29.175Z,2.73
2023-02-24T01:58:00.303Z,2.80
2023-02-24T02:00:45.076Z,2.80
2023-02-24T02:03:27.096Z,2.77
2023-02-24T02:06:02.930Z,2.80
2023-02-24T02:08:30.994Z,2.70
2023-02-24T02:11:06.875Z,2.80
2023-02-24T02:13:37.945Z,2.77
2023-02-24T02:17:26.349Z,2.67
2023-02-24T02:20:42.630Z,2.70
2023-02-24T02:24:00.175Z,2.70
2023-02-24T02:27:20.795Z,2.63
2023-02-24T02:30:34.868Z,2.80
2023-02-24T02:33:27.725Z,2.80
2023-02-24T02:36:31.713Z,2.70
2023-02-24T02:39:44.259Z,2.67
2023-02-24T02:42:33.942Z,2.73
2023-02-24T02:45:13.249Z,2.77
2023-02-24T02:48:06.995Z,2.63
2023-02-24T02:50:57.513Z,2.70
2023-02-24T02:53:34.998Z,2.70
2023-02-24T02:56:22.577Z,2.80
2023-02-24T02:58:56.605Z,2.70
2023-02-24T03:01:32.142Z,2.73
2023-02-24T03:04:06.430Z,2.70
2023-02-24T03:06:55.660Z,2.70
2023-02-24T03:09:36.597Z,2.90
2023-02-24T03:12:11.541Z,2.90
2023-02-24T03:14:51.087Z,2.70
2023-02-24T03:17:25.626Z,2.70
2023-02-24T03:20:17.306Z,2.80
2023-02-24T03:23:19.605Z,2.80
2023-02-24T03:26:25.852Z,2.67
2023-02-24T03:29:04.610Z,2.70
2023-02-24T03:32:10.928Z,2.63
2023-02-24T03:35:01.992Z,2.70
2023-02-24T03:37:31.510Z,2.80
2023-02-24T03:40:11.597Z,2.70
2023-02-24T03:42:44.329Z,2.70
2023-02-24T03:45:12.027Z,2.80
2023-02-24T03:47:41.476Z,2.80
2023-02-24T03:50:19.634Z,2.80
2023-02-24T03:53:31.007Z,2.70
2023-02-24T03:56:45.893Z,2.70
2023-02-24T03:59:48.585Z,2.70
2023-02-24T04:02:24.207Z,2.70
2023-02-24T04:05:15.294Z,2.70
2023-02-24T04:08:21.268Z,2.60
2023-02-24T04:11:17.274Z,2.67
2023-02-24T04:14:24.870Z,2.60
2023-02-24T04:17:05.523Z,2.73
2023-02-24T04:19:40.448Z,2.80
2023-02-24T04:22:12.517Z,2.70
2023-02-24T04:24:44.788Z,2.60
2023-02-24T04:27:15.578Z,2.70
2023-02-24T04:29:53.263Z,2.70
2023-02-24T04:32:28.156Z,2.70
2023-02-24T04:35:09.381Z,2.67
2023-02-24T04:37:45.695Z,2.70
2023-02-24T04:40:17.630Z,2.70
2023-02-24T04:42:48.918Z,2.80
2023-02-24T04:45:21.874Z,2.67
2023-02-24T04:47:56.079Z,2.67
2023-02-24T04:50:27.040Z,2.70
2023-02-24T04:53:28.034Z,2.70
2023-02-24T04:55:56.197Z,2.60
2023-02-24T04:58:29.481Z,2.70
2023-02-24T05:00:56.629Z,2.80
2023-02-24T05:03:29.891Z,2.60
2023-02-24T05:06:00.033Z,2.70
2023-02-24T05:08:30.209Z,2.73
2023-02-24T05:10:58.540Z,2.70
2023-02-24T05:13:31.479Z,2.73
2023-02-24T05:16:08.043Z,2.70
2023-02-24T05:18:37.196Z,2.80
2023-02-24T05:21:35.612Z,2.63
2023-02-24T05:24:06.901Z,2.50
2023-02-24T05:26:41.560Z,2.70
2023-02-24T05:29:12.311Z,2.70
2023-02-24T05:31:39.457Z,2.80
2023-02-24T05:34:08.293Z,2.73
2023-02-24T05:36:40.811Z,2.90
2023-02-24T05:39:12.322Z,2.67
2023-02-24T05:41:43.268Z,2.70
2023-02-24T05:44:22.459Z,2.60
2023-02-24T05:46:58.656Z,2.70
2023-02-24T05:49:33.969Z,2.70
2023-02-24T05:52:08.659Z,2.77
2023-02-24T05:54:41.227Z,2.70
2023-02-24T05:57:13.747Z,2.80
2023-02-24T05:59:43.631Z,2.70
2023-02-24T06:02:16.570Z,2.57
2023-02-24T06:04:53.969Z,2.60
2023-02-24T06:07:28.238Z,2.70
2023-02-24T06:09:58.716Z,2.70
2023-02-24T06:12:34.718Z,2.80
2023-02-24T06:15:07.175Z,2.70
2023-02-24T06:17:34.557Z,2.77
2023-02-24T06:20:01.640Z,2.70
2023-02-24T06:22:28.749Z,2.70
2023-02-24T06:25:02.780Z,2.70
2023-02-24T06:27:30.950Z,2.80
2023-02-24T06:29:58.707Z,2.70
2023-02-24T06:32:26.856Z,2.70
2023-02-24T06:34:54.659Z,2.70
2023-02-24T06:37:24.788Z,2.70
2023-02-24T06:39:51.834Z,2.70
2023-02-24T06:42:19.046Z,2.70
2023-02-24T06:44:47.453Z,2.70
2023-02-24T06:47:17.741Z,2.70
2023-02-24T06:49:45.465Z,2.63
2023-02-24T06:52:18.278Z,2.70
2023-02-24T06:54:48.339Z,2.80
2023-02-24T06:57:15.716Z,2.67
2023-02-24T06:59:43.172Z,2.70
2023-02-24T07:02:11.290Z,2.70
2023-02-24T07:04:43.797Z,2.70
2023-02-24T07:07:14.071Z,2.70
2023-02-24T07:09:42.669Z,2.70
2023-02-24T07:12:12.305Z,2.70
2023-02-24T07:14:40.330Z,2.67
2023-02-24T07:17:08.315Z,2.63
2023-02-24T07:19:36.658Z,2.70
2023-02-24T07:22:04.142Z,2.70
2023-02-24T07:24:40.343Z,2.67
2023-02-24T07:27:21.778Z,2.60
2023-02-24T07:29:53.288Z,2.70
2023-02-24T07:32:22.677Z,2.70
2023-02-24T07:34:50.280Z,2.40
2023-02-24T07:37:19.978Z,2.60
2023-02-24T07:39:47.392Z,2.60
2023-02-24T07:42:14.930Z,2.70
2023-02-24T07:44:46.284Z,2.57
2023-02-24T07:47:15.565Z,2.63
2023-02-24T07:49:42.990Z,2.53
2023-02-24T07:52:11.372Z,2.73
2023-02-24T07:54:39.080Z,2.60
2023-02-24T07:57:13.080Z,2.80
2023-02-24T07:59:46.745Z,2.73
2023-02-24T08:02:14.000Z,2.53
2023-02-24T08:04:44.384Z,2.80
2023-02-24T08:07:14.347Z,2.73
2023-02-24T08:09:45.706Z,2.63
2023-02-24T08:12:21.308Z,2.70
2023-02-24T08:14:53.830Z,2.63
2023-02-24T08:17:26.399Z,2.63
2023-02-24T08:20:29.036Z,2.60
2023-02-24T08:22:56.767Z,2.60
2023-02-24T08:25:36.104Z,2.67
2023-02-24T08:28:11.133Z,2.60
2023-02-24T08:30:45.278Z,2.70
2023-02-24T08:33:22.365Z,2.50
2023-02-24T08:36:01.964Z,2.60
2023-02-24T08:38:42.006Z,2.70
2023-02-24T08:41:29.000Z,2.60
2023-02-24T08:43:56.265Z,2.53
2023-02-24T08:46:36.811Z,2.63
2023-02-24T08:49:10.575Z,2.60
2023-02-24T08:51:43.758Z,2.60
2023-02-24T08:54:31.842Z,2.70
2023-02-24T08:57:09.644Z,2.60
2023-02-24T08:59:37.806Z,2.47
2023-02-24T09:03:53.296Z,2.67
2023-02-24T09:06:44.525Z,2.53
2023-02-24T09:09:22.869Z,2.50
2023-02-24T09:12:00.023Z,2.50
2023-02-24T09:14:37.204Z,2.50
2023-02-24T09:17:10.945Z,2.50
2023-02-24T09:19:51.171Z,2.47
2023-02-24T09:22:32.624Z,2.50
2023-02-24T09:25:17.891Z,2.60
2023-02-24T09:28:09.035Z,2.47
2023-02-24T09:30:54.671Z,2.57
2023-02-24T09:33:39.465Z,2.60
2023-02-24T09:36:27.968Z,2.60
2023-02-24T09:39:03.131Z,2.60
2023-02-24T09:42:24.176Z,2.60
2023-02-24T09:44:57.145Z,2.57
2023-02-24T09:47:56.611Z,2.57
2023-02-24T09:50:59.720Z,2.53
2023-02-24T09:53:29.334Z,2.57
2023-02-24T09:56:36.877Z,2.57
2023-02-24T09:59:50.867Z,2.60
2023-02-24T10:03:03.667Z,2.60
2023-02-24T10:05:49.376Z,2.70
2023-02-24T10:08:33.531Z,2.53
2023-02-24T10:11:08.118Z,2.63
2023-02-24T10:13:54.598Z,2.53
2023-02-24T10:16:24.468Z,2.57
2023-02-24T10:19:16.722Z,2.60
2023-02-24T10:22:39.674Z,2.47
2023-02-24T10:25:42.560Z,2.63
2023-02-24T10:28:52.212Z,2.57
2023-02-24T10:31:46.135Z,2.50
2023-02-24T10:34:26.172Z,2.50
2023-02-24T10:36:57.403Z,2.53
2023-02-24T10:39:26.862Z,2.60
2023-02-24T10:42:01.534Z,2.57
2023-02-24T10:44:36.740Z,2.60
2023-02-24T10:47:11.975Z,2.60
2023-02-24T10:49:56.801Z,2.50
2023-02-24T10:52:56.540Z,2.40
2023-02-24T10:55:54.324Z,2.43
2023-02-24T10:58:45.363Z,2.50
2023-02-24T11:01:21.430Z,2.60
2023-02-24T11:04:12.947Z,2.47
2023-02-24T11:06:40.342Z,2.60
2023-02-24T11:09:27.608Z,2.53
2023-02-24T11:12:29.990Z,2.50
2023-02-24T11:15:33.940Z,2.53
2023-02-24T11:18:02.512Z,2.50
2023-02-24T11:20:51.579Z,2.50
2023-02-24T11:23:46.043Z,2.60
2023-02-24T11:26:23.366Z,2.50
2023-02-24T11:29:29.666Z,2.43
2023-02-24T11:32:08.897Z,2.60
2023-02-24T11:35:05.694Z,2.63
2023-02-24T11:37:45.469Z,2.60
2023-02-24T11:40:25.814Z,2.63
2023-02-24T11:43:18.721Z,2.60
2023-02-24T11:46:02.083Z,2.63
2023-02-24T11:48:49.096Z,2.60
2023-02-24T11:51:32.874Z,2.50
2023-02-24T11:54:13.136Z,2.60
2023-02-24T11:56:53.167Z,2.63
2023-02-24T11:59:39.810Z,2.60
2023-02-24T12:03:07.543Z,2.57
2023-02-24T12:05:49.345Z,2.60
2023-02-24T12:08:44.829Z,2.50
2023-02-24T12:11:36.323Z,2.50
2023-02-24T12:14:36.497Z,2.60
2023-02-24T12:17:33.936Z,2.50
2023-02-24T12:20:21.443Z,2.60
2023-02-24T12:23:20.890Z,2.60
2023-02-24T12:26:30.831Z,2.53
2023-02-24T12:29:09.819Z,2.50
2023-02-24T12:32:30.922Z,2.57
2023-02-24T12:35:24.578Z,2.50
2023-02-24T12:38:28.343Z,2.50
2023-02-24T12:41:40.646Z,2.63
2023-02-24T12:44:58.990Z,2.60
2023-02-24T12:48:15.649Z,2.60
2023-02-24T12:51:08.109Z,2.60
2023-02-24T12:54:20.147Z,2.50
2023-02-24T12:57:11.500Z,2.50
2023-02-24T12:59:41.586Z,2.50
2023-02-24T13:03:10.922Z,2.57
2023-02-24T13:05:52.136Z,2.43
2023-02-24T13:08:55.003Z,2.50
2023-02-24T13:11:49.846Z,2.40
2023-02-24T13:14:37.506Z,2.50
2023-02-24T13:17:10.711Z,2.50
2023-02-24T13:19:43.926Z,2.60
2023-02-24T13:22:13.793Z,2.50
2023-02-24T13:25:04.942Z,2.50
2023-02-24T13:27:43.230Z,2.50
2023-02-24T13:30:18.157Z,2.57
2023-02-24T13:33:04.809Z,2.50
2023-02-24T13:35:36.854Z,2.60
2023-02-24T13:38:36.560Z,2.50
2023-02-24T13:41:26.240Z,2.43
2023-02-24T13:44:25.928Z,2.50
2023-02-24T13:47:08.360Z,2.50
2023-02-24T13:49:57.233Z,2.43
2023-02-24T13:53:13.608Z,2.50
2023-02-24T13:56:15.952Z,2.50
2023-02-24T13:59:19.258Z,2.50
2023-02-24T14:02:10.925Z,2.47
2023-02-24T14:04:55.327Z,2.60
2023-02-24T14:07:36.992Z,2.50
2023-02-24T14:10:19.166Z,2.50
2023-02-24T14:12:49.581Z,2.40
2023-02-24T14:15:24.549Z,2.47
2023-02-24T14:18:03.227Z,2.50
2023-02-24T14:20:37.961Z,2.50
2023-02-24T14:23:32.041Z,2.50
2023-02-24T14:26:15.856Z,2.50
2023-02-24T14:28:56.693Z,2.50
2023-02-24T14:31:25.976Z,2.50
2023-02-24T14:34:04.189Z,2.57
2023-02-24T14:36:39.374Z,2.60
2023-02-24T14:39:25.444Z,2.47
2023-02-24T14:42:14.915Z,2.57
2023-02-24T14:44:56.251Z,2.50
2023-02-24T14:47:28.616Z,2.57
2023-02-24T14:50:04.889Z,2.50
2023-02-24T14:53:01.314Z,2.60
2023-02-24T14:55:40.405Z,2.50
2023-02-24T14:58:23.577Z,2.50
2023-02-24T15:01:07.041Z,2.50
2023-02-24T15:03:46.695Z,2.50
2023-02-24T15:06:41.990Z,2.40
2023-02-24T15:09:23.530Z,2.57
2023-02-24T15:11:53.245Z,2.50
2023-02-24T15:14:29.776Z,2.50
2023-02-24T15:17:04.101Z,2.50
2023-02-24T15:19:47.047Z,2.50
2023-02-24T15:22:25.516Z,2.43
2023-02-24T15:25:12.844Z,2.47
2023-02-24T15:27:56.628Z,2.50
2023-02-24T15:30:36.156Z,2.50
2023-02-24T15:33:26.463Z,2.50
2023-02-24T15:35:58.364Z,2.50
2023-02-24T15:38:38.347Z,2.50
2023-02-24T15:41:08.374Z,2.43
2023-02-24T15:43:50.416Z,2.57
2023-02-24T15:46:33.873Z,2.50
2023-02-24T15:49:04.546Z,2.50
2023-02-24T15:51:42.068Z,2.60
2023-02-24T15:54:18.493Z,2.57
2023-02-24T15:56:47.534Z,2.50
2023-02-24T15:59:21.131Z,2.50
2023-02-24T16:01:48.402Z,2.63
2023-02-24T16:04:15.416Z,2.60
2023-02-24T16:06:54.259Z,2.60
2023-02-24T16:09:37.385Z,2.63
2023-02-24T16:12:15.395Z,2.57
2023-02-24T16:14:43.980Z,2.50
2023-02-24T16:17:40.231Z,2.60
2023-02-24T16:20:27.249Z,2.50
2023-02-24T16:23:05.956Z,2.60
2023-02-24T16:25:45.148Z,2.60
2023-02-24T16:28:22.026Z,2.60
2023-02-24T16:30:51.623Z,2.60
2023-02-24T16:33:22.611Z,2.60
2023-02-24T16:35:55.014Z,2.60
2023-02-24T16:38:26.459Z,2.67
2023-02-24T16:40:55.224Z,2.60
2023-02-24T16:43:22.380Z,2.60
2023-02-24T16:45:51.197Z,2.60
2023-02-24T16:48:26.350Z,2.60
2023-02-24T16:50:53.746Z,2.50
2023-02-24T16:53:24.152Z,2.70
2023-02-24T16:55:51.744Z,2.63
2023-02-24T16:58:19.788Z,2.70
2023-02-24T17:00:52.077Z,2.67
2023-02-24T17:03:50.319Z,2.67
2023-02-24T17:06:17.537Z,2.70
2023-02-24T17:08:46.030Z,2.67
2023-02-24T17:11:18.073Z,2.67
2023-02-24T17:13:45.334Z,2.60
2023-02-24T17:16:13.304Z,2.60
2023-02-24T17:18:40.377Z,2.67
2023-02-24T17:21:07.515Z,2.60
2023-02-24T17:23:34.545Z,2.53
2023-02-24T17:26:03.264Z,2.63
2023-02-24T17:28:30.624Z,2.60
2023-02-24T17:30:58.050Z,2.70
2023-02-24T17:33:25.082Z,2.63
2023-02-24T17:35:52.098Z,2.70
2023-02-24T17:38:23.027Z,2.60
2023-02-24T17:40:50.139Z,2.70
2023-02-24T17:43:17.093Z,2.63
2023-02-24T17:45:47.047Z,2.60
2023-02-24T17:48:15.887Z,2.70
2023-02-24T17:50:45.125Z,2.57
2023-02-24T17:53:12.552Z,2.60
2023-02-24T17:55:55.850Z,2.60
2023-02-24T17:58:23.069Z,2.60
2023-02-24T18:00:50.058Z,2.60
2023-02-24T18:03:17.675Z,2.60
2023-02-24T18:05:44.693Z,2.70
2023-02-24T18:08:14.369Z,2.70
2023-02-24T18:10:41.700Z,2.60
2023-02-24T18:13:09.103Z,2.60
2023-02-24T18:15:39.036Z,2.60
2023-02-24T18:18:06.252Z,2.70
2023-02-24T18:20:33.741Z,2.60
2023-02-24T18:23:00.722Z,2.60
2023-02-24T18:25:28.537Z,2.60
2023-02-24T18:27:55.961Z,2.70
2023-02-24T18:30:22.943Z,2.57
2023-02-24T18:32:51.779Z,2.60
2023-02-24T18:35:22.085Z,2.70
2023-02-24T18:37:56.194Z,2.70
2023-02-24T18:40:28.781Z,2.70
2023-02-24T18:42:56.573Z,2.60
2023-02-24T18:45:24.427Z,2.70
2023-02-24T18:47:53.143Z,2.60
2023-02-24T18:50:24.886Z,2.60
2023-02-24T18:52:52.500Z,2.57
2023-02-24T18:55:21.969Z,2.60
2023-02-24T18:57:49.470Z,2.60
2023-02-24T19:00:17.384Z,2.60
2023-02-24T19:02:47.205Z,2.70
2023-02-24T19:05:14.325Z,2.60
2023-02-24T19:07:42.760Z,2.70
2023-02-24T19:10:11.212Z,2.60
2023-02-24T19:12:38.355Z,2.70
2023-02-24T19:15:06.845Z,2.60
2023-02-24T19:17:34.274Z,2.63
2023-02-24T19:20:01.809Z,2.60
2023-02-24T19:22:28.780Z,2.63
2023-02-24T19:24:56.613Z,2.70
2023-02-24T19:27:23.860Z,2.63
2023-02-24T19:29:54.230Z,2.70
2023-02-24T19:32:22.992Z,2.70
2023-02-24T19:34:50.144Z,2.70
2023-02-24T19:37:17.210Z,2.70
2023-02-24T19:39:44.371Z,2.70
2023-02-24T19:42:11.799Z,2.70
2023-02-24T19:44:38.821Z,2.60
2023-02-24T19:47:06.242Z,2.67
2023-02-24T19:49:34.602Z,2.70
2023-02-24T19:52:02.200Z,2.70
2023-02-24T19:54:30.132Z,2.70
2023-02-24T19:57:01.084Z,2.70
2023-02-24T19:59:28.795Z,2.70
2023-02-24T20:01:55.852Z,2.67
2023-02-24T20:04:25.502Z,2.70
2023-02-24T20:06:52.742Z,2.70
2023-02-24T20:09:21.214Z,2.80
2023-02-24T20:11:51.343Z,2.70
2023-02-24T20:14:20.360Z,2.70
2023-02-24T20:16:47.904Z,2.70
2023-02-24T20:19:17.190Z,2.70
2023-02-24T20:21:44.466Z,2.73
2023-02-24T20:24:16.866Z,2.73
2023-02-24T20:26:49.539Z,2.77
2023-02-24T20:29:21.071Z,2.73
2023-02-24T20:31:49.480Z,2.77
2023-02-24T20:34:17.745Z,2.83
2023-02-24T20:36:45.420Z,2.90
2023-02-24T20:39:12.470Z,2.83
2023-02-24T20:41:40.720Z,2.83
2023-02-24T20:44:08.100Z,2.87
2023-02-24T20:46:37.048Z,2.90
2023-02-24T20:49:09.261Z,2.90
2023-02-24T20:51:37.868Z,2.97
2023-02-24T20:54:10.426Z,3.00
2023-02-24T20:56:42.334Z,2.90
2023-02-24T20:59:24.143Z,2.90
2023-02-24T21:01:51.732Z,3.00
2023-02-24T21:04:23.962Z,2.93
2023-02-24T21:06:52.868Z,3.03
2023-02-24T21:09:19.968Z,3.00
2023-02-24T21:11:47.413Z,3.00
2023-02-24T21:14:17.002Z,3.00
2023-02-24T21:16:45.938Z,3.00
2023-02-24T21:19:13.109Z,3.00
2023-02-24T21:21:40.545Z,3.00
2023-02-24T21:24:08.228Z,3.00
2023-02-24T21:26:35.392Z,3.00
2023-02-24T21:29:02.600Z,3.00
2023-02-24T21:31:29.682Z,3.00
2023-02-24T21:33:57.371Z,3.00
2023-02-24T21:36:26.090Z,3.00
2023-02-24T21:38:54.654Z,3.03
2023-02-24T21:41:23.531Z,3.00
2023-02-24T21:43:54.770Z,3.07
2023-02-24T21:46:24.406Z,3.00
2023-02-24T21:48:58.895Z,3.10
2023-02-24T21:51:27.752Z,3.03
2023-02-24T21:53:56.690Z,3.10
2023-02-24T21:56:29.914Z,3.03
2023-02-24T21:59:05.033Z,3.10
2023-02-24T22:01:40.808Z,3.03
2023-02-24T22:04:17.941Z,3.10
2023-02-24T22:06:45.686Z,3.07
2023-02-24T22:09:20.916Z,3.00
2023-02-24T22:11:50.106Z,3.10
2023-02-24T22:14:17.916Z,3.10
2023-02-24T22:16:45.100Z,3.07
2023-02-24T22:19:12.855Z,3.07
2023-02-24T22:21:42.414Z,3.10
2023-02-24T22:24:15.799Z,3.10
2023-02-24T22:26:44.284Z,3.10
2023-02-24T22:29:12.122Z,3.10
2023-02-24T22:31:43.428Z,3.10
2023-02-24T22:34:10.890Z,3.10
2023-02-24T22:36:38.537Z,3.07
2023-02-24T22:39:06.640Z,3.10
2023-02-24T22:41:35.824Z,3.10
2023-02-24T22:44:05.774Z,3.10
2023-02-24T22:46:38.417Z,3.10
2023-02-24T22:49:07.842Z,3.10
2023-02-24T22:51:38.426Z,3.10
2023-02-24T22:54:11.790Z,3.10
2023-02-24T22:56:47.366Z,3.07
2023-02-24T22:59:16.027Z,3.10
2023-02-24T23:01:45.899Z,3.07
2023-02-24T23:04:17.149Z,3.10
2023-02-24T23:06:47.670Z,3.10
2023-02-24T23:09:22.764Z,3.07
2023-02-24T23:11:52.366Z,3.03
2023-02-24T23:14:24.831Z,3.10
2023-02-24T23:16:55.668Z,3.10
2023-02-24T23:19:24.022Z,3.00
2023-02-24T23:21:55.520Z,3.10
2023-02-24T23:24:29.375Z,3.00
2023-02-24T23:27:00.323Z,3.10
2023-02-24T23:29:30.906Z,3.07
2023-02-24T23:31:58.726Z,3.00
2023-02-24T23:34:26.514Z,3.00
2023-02-24T23:36:55.697Z,3.10
2023-02-24T23:39:25.856Z,3.00
2023-02-24T23:41:57.801Z,3.03
2023-02-24T23:44:25.766Z,3.07
2023-02-24T23:46:58.306Z,3.07
2023-02-24T23:49:42.355Z,3.10
2023-02-24T23:52:14.728Z,3.03
2023-02-24T23:54:43.673Z,3.10
2023-02-24T23:57:17.053Z,3.03
2023-02-24T23:59:55.382Z,3.03
